Terminal Aerodrome Forecast
Issued by NWS

Home | Current Version | Previous Version | Text Only | Print | Product List | Glossary On
Versions: 1 2 3 4 5 6 7 8 9 10 11 12 13 14 15 16 17
000
FTUS43 KBIS 300900 AAA
TAFJMS
TAF AMD
KJMS 300905Z 3009/0106 12013KT P6SM BKN008 OVC020
     FM301600 12017G26KT 5SM -SHRA VCTS BKN012 OVC020CB
     FM010000 15018KT 4SM -SHRA VCTS BKN008 OVC020CB=

USA.gov is the U.S. government's official web portal to all federal, state and local government web resources and services.